createdAt,value
2023-01-06T00:00:27.630Z,21.16
2023-01-06T00:01:28.230Z,21.16
2023-01-06T00:02:27.627Z,21.16
2023-01-06T00:03:27.621Z,21.13
2023-01-06T00:04:29.370Z,21.14
2023-01-06T00:05:27.531Z,21.13
2023-01-06T00:06:27.961Z,21.13
2023-01-06T00:07:27.658Z,21.13
2023-01-06T00:08:27.460Z,21.12
2023-01-06T00:09:27.724Z,21.12
2023-01-06T00:10:28.201Z,21.12
2023-01-06T00:11:27.648Z,21.13
2023-01-06T00:12:27.413Z,21.12
2023-01-06T00:13:28.189Z,21.09
2023-01-06T00:14:27.404Z,21.10
2023-01-06T00:15:27.534Z,21.10
2023-01-06T00:16:28.321Z,21.10
2023-01-06T00:17:27.396Z,21.10
2023-01-06T00:18:27.319Z,21.07
2023-01-06T00:19:27.617Z,21.07
2023-01-06T00:20:27.323Z,21.09
2023-01-06T00:21:27.395Z,21.07
2023-01-06T00:22:27.275Z,21.07
2023-01-06T00:23:27.314Z,21.09
2023-01-06T00:24:27.249Z,21.06
2023-01-06T00:25:27.457Z,21.06
2023-01-06T00:26:27.246Z,21.07
2023-01-06T00:27:27.843Z,21.09
2023-01-06T00:28:27.194Z,21.06
2023-01-06T00:29:27.298Z,21.06
2023-01-06T00:30:27.195Z,21.03
2023-01-06T00:31:27.465Z,21.03
2023-01-06T00:32:27.150Z,21.03
2023-01-06T00:33:28.516Z,21.01
2023-01-06T00:34:27.101Z,21.01
2023-01-06T00:35:27.323Z,21.01
2023-01-06T00:36:27.143Z,20.99
2023-01-06T00:37:27.939Z,21.03
2023-01-06T00:38:27.101Z,21.01
2023-01-06T00:39:27.110Z,20.99
2023-01-06T00:40:27.786Z,21.01
2023-01-06T00:41:27.082Z,20.99
2023-01-06T00:42:27.076Z,20.98
2023-01-06T00:43:27.200Z,20.99
2023-01-06T00:44:27.001Z,20.98
2023-01-06T00:45:27.096Z,20.98
2023-01-06T00:46:27.597Z,20.97
2023-01-06T00:47:27.007Z,20.98
2023-01-06T00:48:26.888Z,20.98
2023-01-06T00:49:27.101Z,20.95
2023-01-06T00:50:26.918Z,20.95
2023-01-06T00:51:27.040Z,20.97
2023-01-06T00:52:26.868Z,20.94
2023-01-06T00:53:26.911Z,20.95
2023-01-06T00:54:26.833Z,20.97
2023-01-06T00:55:27.051Z,20.92
2023-01-06T00:56:26.830Z,20.92
2023-01-06T00:57:26.877Z,20.94
2023-01-06T00:58:27.046Z,20.94
2023-01-06T00:59:26.899Z,20.94
2023-01-06T01:00:26.964Z,20.95
2023-01-06T01:01:27.142Z,20.92
2023-01-06T01:02:26.936Z,20.92
2023-01-06T01:03:26.815Z,20.92
2023-01-06T01:04:26.708Z,20.92
2023-01-06T01:05:26.738Z,20.89
2023-01-06T01:06:26.871Z,20.89
2023-01-06T01:07:26.808Z,20.91
2023-01-06T01:08:26.682Z,20.89
2023-01-06T01:09:26.764Z,20.87
2023-01-06T01:10:26.643Z,20.89
2023-01-06T01:11:26.620Z,20.88
2023-01-06T01:12:26.660Z,20.88
2023-01-06T01:13:26.988Z,20.87
2023-01-06T01:14:26.617Z,20.89
2023-01-06T01:15:27.010Z,20.88
2023-01-06T01:16:26.563Z,20.85
2023-01-06T01:17:26.567Z,20.87
2023-01-06T01:18:26.567Z,20.88
2023-01-06T01:19:26.718Z,20.88
2023-01-06T01:20:26.586Z,20.87
2023-01-06T01:21:26.554Z,20.87
2023-01-06T01:22:26.794Z,20.89
2023-01-06T01:23:26.493Z,20.87
2023-01-06T01:24:27.195Z,20.84
2023-01-06T01:25:27.852Z,20.87
2023-01-06T01:26:26.426Z,20.87
2023-01-06T01:27:26.558Z,20.87
2023-01-06T01:28:26.435Z,20.84
2023-01-06T01:29:26.446Z,20.87
2023-01-06T01:30:26.370Z,20.87
2023-01-06T01:31:26.588Z,20.85
2023-01-06T01:32:26.364Z,20.85
2023-01-06T01:33:26.698Z,20.85
2023-01-06T01:34:26.352Z,20.84
2023-01-06T01:35:26.397Z,20.84
2023-01-06T01:36:26.293Z,20.84
2023-01-06T01:37:26.529Z,20.84
2023-01-06T01:38:26.249Z,20.82
2023-01-06T01:39:26.451Z,20.82
2023-01-06T01:40:26.254Z,20.80
2023-01-06T01:41:26.976Z,20.80
2023-01-06T01:42:26.238Z,20.82
2023-01-06T01:43:26.379Z,20.79
2023-01-06T01:44:26.261Z,20.82
2023-01-06T01:45:26.254Z,20.77
2023-01-06T01:46:26.310Z,20.79
2023-01-06T01:47:26.256Z,20.79
2023-01-06T01:48:26.267Z,20.79
2023-01-06T01:49:27.540Z,20.79
2023-01-06T01:50:26.222Z,20.77
2023-01-06T01:51:26.119Z,20.79
2023-01-06T01:52:26.095Z,20.79
2023-01-06T01:53:26.115Z,20.76
2023-01-06T01:54:26.046Z,20.76
2023-01-06T01:55:26.192Z,20.79
2023-01-06T01:56:26.012Z,20.77
2023-01-06T01:57:26.048Z,20.74
2023-01-06T01:58:26.056Z,20.76
2023-01-06T01:59:26.023Z,20.77
2023-01-06T02:00:26.074Z,20.74
2023-01-06T02:01:27.245Z,20.74
2023-01-06T02:02:26.072Z,20.73
2023-01-06T02:03:25.968Z,20.76
2023-01-06T02:04:26.104Z,20.76
2023-01-06T02:05:25.947Z,20.73
2023-01-06T02:06:25.913Z,20.72
2023-01-06T02:07:26.312Z,20.73
2023-01-06T02:08:25.884Z,20.72
2023-01-06T02:09:25.922Z,20.72
2023-01-06T02:10:26.803Z,20.73
2023-01-06T02:11:26.761Z,20.72
2023-01-06T02:12:25.822Z,20.73
2023-01-06T02:13:25.970Z,20.70
2023-01-06T02:14:25.765Z,20.70
2023-01-06T02:15:26.567Z,20.69
2023-01-06T02:16:25.868Z,20.70
2023-01-06T02:17:25.756Z,20.69
2023-01-06T02:18:25.744Z,20.67
2023-01-06T02:19:25.777Z,20.69
2023-01-06T02:20:25.736Z,20.69
2023-01-06T02:21:25.704Z,20.70
2023-01-06T02:22:25.692Z,20.66
2023-01-06T02:23:25.686Z,20.69
2023-01-06T02:24:25.675Z,20.66
2023-01-06T02:25:25.700Z,20.66
2023-01-06T02:26:25.631Z,20.66
2023-01-06T02:27:25.722Z,20.70
2023-01-06T02:28:25.753Z,20.67
2023-01-06T02:29:25.554Z,20.66
2023-01-06T02:30:25.570Z,20.64
2023-01-06T02:31:28.478Z,20.66
2023-01-06T02:32:25.516Z,20.66
2023-01-06T02:33:25.800Z,20.64
2023-01-06T02:34:26.443Z,20.67
2023-01-06T02:35:25.473Z,20.66
2023-01-06T02:36:25.490Z,20.66
2023-01-06T02:37:25.585Z,20.67
2023-01-06T02:38:25.471Z,20.66
2023-01-06T02:39:25.455Z,20.64
2023-01-06T02:40:25.545Z,20.62
2023-01-06T02:41:25.428Z,20.66
2023-01-06T02:42:25.601Z,20.66
2023-01-06T02:43:25.892Z,20.64
2023-01-06T02:44:25.387Z,20.61
2023-01-06T02:45:25.636Z,20.61
2023-01-06T02:46:25.372Z,20.61
2023-01-06T02:47:25.361Z,20.62
2023-01-06T02:48:26.277Z,20.62
2023-01-06T02:49:25.418Z,20.61
2023-01-06T02:50:25.298Z,20.59
2023-01-06T02:51:25.822Z,20.62
2023-01-06T02:52:25.332Z,20.61
2023-01-06T02:53:25.249Z,20.61
2023-01-06T02:54:25.213Z,20.61
2023-01-06T02:55:25.721Z,20.62
2023-01-06T02:56:25.434Z,20.62
2023-01-06T02:57:25.339Z,20.58
2023-01-06T02:58:25.149Z,20.61
2023-01-06T02:59:25.166Z,20.58
2023-01-06T03:00:25.187Z,20.61
2023-01-06T03:01:25.465Z,20.58
2023-01-06T03:02:25.206Z,20.59
2023-01-06T03:03:25.156Z,20.61
2023-01-06T03:04:25.422Z,20.58
2023-01-06T03:05:25.208Z,20.59
2023-01-06T03:06:25.046Z,20.58
2023-01-06T03:07:25.324Z,20.55
2023-01-06T03:08:25.034Z,20.57
2023-01-06T03:09:25.076Z,20.57
2023-01-06T03:10:25.053Z,20.55
2023-01-06T03:11:24.960Z,20.57
2023-01-06T03:12:24.986Z,20.54
2023-01-06T03:13:25.143Z,20.58
2023-01-06T03:14:24.950Z,20.57
2023-01-06T03:15:24.982Z,20.57
2023-01-06T03:16:25.851Z,20.54
2023-01-06T03:17:24.954Z,20.55
2023-01-06T03:18:24.895Z,20.55
2023-01-06T03:19:25.109Z,20.54
2023-01-06T03:20:24.969Z,20.55
2023-01-06T03:21:25.816Z,20.52
2023-01-06T03:22:24.857Z,20.55
2023-01-06T03:23:24.821Z,20.54
2023-01-06T03:24:24.803Z,20.54
2023-01-06T03:25:24.864Z,20.52
2023-01-06T03:26:24.823Z,20.52
2023-01-06T03:27:24.795Z,20.52
2023-01-06T03:28:24.862Z,20.52
2023-01-06T03:29:25.678Z,20.52
2023-01-06T03:30:24.813Z,20.52
2023-01-06T03:31:25.581Z,20.51
2023-01-06T03:32:24.717Z,20.51
2023-01-06T03:33:24.822Z,20.52
2023-01-06T03:34:24.659Z,20.52
2023-01-06T03:35:25.460Z,20.52
2023-01-06T03:36:24.977Z,20.50
2023-01-06T03:37:24.688Z,20.50
2023-01-06T03:38:24.690Z,20.52
2023-01-06T03:39:24.928Z,20.50
2023-01-06T03:40:24.885Z,20.48
2023-01-06T03:41:24.684Z,20.51
2023-01-06T03:42:35.936Z,20.51
2023-01-06T03:43:25.795Z,20.50
2023-01-06T03:44:24.537Z,20.50
2023-01-06T03:45:24.875Z,20.50
2023-01-06T03:46:24.556Z,20.48
2023-01-06T03:47:24.473Z,20.50
2023-01-06T03:48:24.532Z,20.47
2023-01-06T03:49:24.691Z,20.50
2023-01-06T03:50:24.474Z,20.48
2023-01-06T03:51:25.145Z,20.47
2023-01-06T03:52:24.455Z,20.47
2023-01-06T03:53:24.406Z,20.47
2023-01-06T03:54:24.400Z,20.43
2023-01-06T03:55:25.458Z,20.48
2023-01-06T03:56:24.379Z,20.48
2023-01-06T03:57:25.334Z,20.47
2023-01-06T03:58:24.966Z,20.43
2023-01-06T03:59:24.460Z,20.42
2023-01-06T04:00:24.371Z,20.43
2023-01-06T04:01:26.220Z,20.42
2023-01-06T04:02:24.284Z,20.42
2023-01-06T04:03:24.528Z,20.48
2023-01-06T04:04:24.316Z,20.41
2023-01-06T04:05:24.387Z,20.42
2023-01-06T04:06:24.340Z,20.42
2023-01-06T04:07:24.350Z,20.42
2023-01-06T04:08:24.220Z,20.42
2023-01-06T04:09:24.223Z,20.43
2023-01-06T04:10:24.199Z,20.41
2023-01-06T04:11:25.231Z,20.41
2023-01-06T04:12:24.151Z,20.41
2023-01-06T04:13:24.282Z,20.43
2023-01-06T04:14:24.155Z,20.42
2023-01-06T04:15:24.487Z,20.42
2023-01-06T04:16:24.239Z,20.41
2023-01-06T04:17:24.247Z,20.43
2023-01-06T04:18:24.133Z,20.42
2023-01-06T04:19:24.299Z,20.39
2023-01-06T04:20:24.075Z,20.42
2023-01-06T04:21:24.080Z,20.38
2023-01-06T04:22:24.035Z,20.42
2023-01-06T04:23:24.118Z,20.38
2023-01-06T04:24:24.041Z,20.39
2023-01-06T04:25:24.276Z,20.38
2023-01-06T04:26:24.001Z,20.38
2023-01-06T04:27:24.276Z,20.39
2023-01-06T04:28:24.009Z,20.39
2023-01-06T04:29:23.992Z,20.36
2023-01-06T04:30:23.968Z,20.36
2023-01-06T04:31:25.898Z,20.38
2023-01-06T04:32:23.872Z,20.36
2023-01-06T04:33:24.127Z,20.38
2023-01-06T04:34:24.625Z,20.36
2023-01-06T04:35:24.067Z,20.36
2023-01-06T04:36:23.869Z,20.36
2023-01-06T04:37:24.205Z,20.36
2023-01-06T04:38:23.868Z,20.39
2023-01-06T04:39:23.953Z,20.38
2023-01-06T04:40:23.861Z,20.35
2023-01-06T04:41:23.944Z,20.33
2023-01-06T04:42:23.785Z,20.36
2023-01-06T04:43:23.923Z,20.35
2023-01-06T04:44:23.788Z,20.32
2023-01-06T04:45:24.101Z,20.35
2023-01-06T04:46:23.695Z,20.35
2023-01-06T04:47:24.618Z,20.35
2023-01-06T04:48:23.688Z,20.33
2023-01-06T04:49:23.868Z,20.32
2023-01-06T04:50:23.946Z,20.31
2023-01-06T04:51:24.049Z,20.33
2023-01-06T04:52:23.641Z,20.33
2023-01-06T04:53:23.735Z,20.31
2023-01-06T04:54:23.625Z,20.32
2023-01-06T04:55:24.811Z,20.29
2023-01-06T04:56:25.274Z,20.33
2023-01-06T04:57:23.621Z,20.31
2023-01-06T04:58:23.565Z,20.31
2023-01-06T04:59:24.508Z,20.29
2023-01-06T05:00:23.564Z,20.31
2023-01-06T05:01:24.151Z,20.29
2023-01-06T05:02:23.454Z,20.33
2023-01-06T05:03:23.621Z,20.32
2023-01-06T05:04:23.439Z,20.29
2023-01-06T05:05:24.180Z,20.31
2023-01-06T05:06:23.400Z,20.29
2023-01-06T05:07:24.516Z,20.28
2023-01-06T05:08:23.386Z,20.29
2023-01-06T05:09:24.263Z,20.29
2023-01-06T05:10:23.432Z,20.31
2023-01-06T05:11:24.190Z,20.29
2023-01-06T05:12:23.497Z,20.28
2023-01-06T05:13:23.691Z,20.29
2023-01-06T05:14:23.352Z,20.28
2023-01-06T05:15:23.608Z,20.32
2023-01-06T05:16:24.305Z,20.31
2023-01-06T05:17:23.597Z,20.29
2023-01-06T05:18:23.264Z,20.31
2023-01-06T05:19:23.568Z,20.28
2023-01-06T05:20:23.221Z,20.28
2023-01-06T05:21:24.371Z,20.28
2023-01-06T05:22:23.147Z,20.26
2023-01-06T05:23:23.330Z,20.28
2023-01-06T05:24:23.194Z,20.26
2023-01-06T05:25:24.312Z,20.26
2023-01-06T05:26:23.192Z,20.24
2023-01-06T05:27:29.939Z,20.24
2023-01-06T05:28:23.060Z,20.28
2023-01-06T05:29:24.243Z,20.24
2023-01-06T05:30:23.056Z,20.23
2023-01-06T05:31:24.300Z,20.26
2023-01-06T05:32:23.075Z,20.26
2023-01-06T05:33:23.388Z,20.26
2023-01-06T05:34:23.025Z,20.28
2023-01-06T05:35:23.340Z,20.26
2023-01-06T05:36:23.295Z,20.26
2023-01-06T05:37:24.878Z,20.23
2023-01-06T05:38:22.968Z,20.26
2023-01-06T05:39:23.380Z,20.28
2023-01-06T05:40:22.931Z,20.26
2023-01-06T05:41:23.166Z,20.24
2023-01-06T05:42:22.940Z,20.28
2023-01-06T05:43:23.935Z,20.28
2023-01-06T05:44:22.859Z,20.26
2023-01-06T05:45:23.129Z,20.29
2023-01-06T05:46:22.851Z,20.29
2023-01-06T05:47:23.077Z,20.31
2023-01-06T05:48:22.878Z,20.31
2023-01-06T05:49:23.167Z,20.32
2023-01-06T05:50:22.807Z,20.33
2023-01-06T05:51:23.111Z,20.35
2023-01-06T05:52:22.749Z,20.35
2023-01-06T05:53:24.250Z,20.38
2023-01-06T05:54:22.758Z,20.38
2023-01-06T05:55:23.004Z,20.39
2023-01-06T05:56:22.739Z,20.39
2023-01-06T05:57:24.123Z,20.39
2023-01-06T05:58:22.959Z,20.41
2023-01-06T05:59:23.788Z,20.42
2023-01-06T06:00:22.706Z,20.42
2023-01-06T06:01:23.102Z,20.48
2023-01-06T06:02:23.624Z,20.47
2023-01-06T06:03:25.576Z,20.43
2023-01-06T06:04:22.938Z,20.50
2023-01-06T06:05:22.938Z,20.48
2023-01-06T06:06:22.594Z,20.51
2023-01-06T06:07:23.850Z,20.51
2023-01-06T06:08:22.553Z,20.51
2023-01-06T06:09:22.861Z,20.52
2023-01-06T06:10:22.489Z,20.51
2023-01-06T06:11:23.417Z,20.54
2023-01-06T06:12:22.465Z,20.57
2023-01-06T06:13:24.495Z,20.54
2023-01-06T06:14:22.447Z,20.54
2023-01-06T06:15:22.936Z,20.55
2023-01-06T06:16:23.228Z,20.58
2023-01-06T06:17:25.186Z,20.55
2023-01-06T06:18:22.690Z,20.55
2023-01-06T06:19:24.529Z,20.57
2023-01-06T06:20:22.390Z,20.57
2023-01-06T06:21:22.920Z,20.58
2023-01-06T06:22:22.377Z,20.59
2023-01-06T06:23:25.353Z,20.61
2023-01-06T06:24:22.337Z,20.62
2023-01-06T06:25:22.765Z,20.62
2023-01-06T06:26:22.318Z,20.61
2023-01-06T06:27:23.931Z,20.61
2023-01-06T06:28:23.804Z,20.64
2023-01-06T06:29:43.235Z,20.64
2023-01-06T06:30:22.369Z,20.62
2023-01-06T06:31:23.457Z,20.64
2023-01-06T06:32:23.118Z,20.64
2023-01-06T06:33:23.460Z,20.66
2023-01-06T06:34:22.291Z,20.67
2023-01-06T06:35:23.195Z,20.66
2023-01-06T06:36:22.273Z,20.69
2023-01-06T06:37:22.613Z,20.67
2023-01-06T06:38:22.318Z,20.64
2023-01-06T06:39:23.549Z,20.67
2023-01-06T06:40:22.401Z,20.66
2023-01-06T06:41:22.331Z,20.66
2023-01-06T06:42:23.187Z,20.69
2023-01-06T06:43:24.101Z,20.69
2023-01-06T06:44:22.374Z,20.72
2023-01-06T06:45:24.110Z,20.72
2023-01-06T06:46:22.365Z,20.70
2023-01-06T06:47:23.249Z,20.70
2023-01-06T06:48:22.123Z,20.72
2023-01-06T06:49:23.283Z,20.69
2023-01-06T06:50:21.986Z,20.70
2023-01-06T06:51:25.285Z,20.72
2023-01-06T06:52:21.981Z,20.69
2023-01-06T06:53:22.138Z,20.73
2023-01-06T06:54:22.020Z,20.72
2023-01-06T06:55:22.383Z,20.72
2023-01-06T06:56:21.989Z,20.72
2023-01-06T06:57:23.166Z,20.73
2023-01-06T06:58:22.892Z,20.73
2023-01-06T06:59:23.060Z,20.74
2023-01-06T07:00:21.855Z,20.76
2023-01-06T07:01:23.068Z,20.74
2023-01-06T07:02:21.865Z,20.76
2023-01-06T07:03:23.057Z,20.76
2023-01-06T07:04:21.873Z,20.77
2023-01-06T07:05:24.514Z,20.77
2023-01-06T07:06:21.806Z,20.79
2023-01-06T07:07:22.993Z,20.77
2023-01-06T07:08:21.776Z,20.77
2023-01-06T07:09:23.393Z,20.77
2023-01-06T07:10:22.717Z,20.79
2023-01-06T07:11:22.455Z,20.77
2023-01-06T07:12:23.670Z,20.80
2023-01-06T07:13:32.872Z,20.80
2023-01-06T07:14:21.764Z,20.79
2023-01-06T07:15:23.193Z,20.79
2023-01-06T07:16:21.650Z,20.79
2023-01-06T07:17:22.673Z,20.79
2023-01-06T07:18:22.356Z,20.80
2023-01-06T07:19:25.151Z,20.80
2023-01-06T07:20:22.537Z,20.82
2023-01-06T07:21:22.211Z,20.80
2023-01-06T07:22:21.590Z,20.82
2023-01-06T07:23:21.766Z,20.82
2023-01-06T07:24:22.466Z,20.82
2023-01-06T07:25:21.951Z,20.84
2023-01-06T07:26:21.503Z,20.85
2023-01-06T07:27:24.292Z,20.84
2023-01-06T07:28:21.530Z,20.85
2023-01-06T07:29:34.823Z,20.85
2023-01-06T07:30:21.749Z,20.82
2023-01-06T07:31:21.928Z,20.84
2023-01-06T07:32:22.370Z,20.85
2023-01-06T07:33:24.151Z,20.87
2023-01-06T07:34:21.407Z,20.84
2023-01-06T07:35:22.829Z,20.87
2023-01-06T07:36:21.378Z,20.85
2023-01-06T07:37:22.614Z,20.88
2023-01-06T07:38:21.493Z,20.87
2023-01-06T07:39:22.717Z,20.89
2023-01-06T07:40:21.543Z,20.89
2023-01-06T07:41:21.433Z,20.88
2023-01-06T07:42:22.348Z,20.89
2023-01-06T07:43:21.629Z,20.87
2023-01-06T07:44:21.499Z,20.88
2023-01-06T07:45:22.376Z,20.88
2023-01-06T07:46:21.323Z,20.85
2023-01-06T07:47:21.273Z,20.91
2023-01-06T07:48:22.176Z,20.88
2023-01-06T07:49:22.442Z,20.89
2023-01-06T07:50:21.381Z,20.91
2023-01-06T07:51:22.316Z,20.89
2023-01-06T07:52:21.889Z,20.92
2023-01-06T07:53:22.313Z,20.89
2023-01-06T07:54:21.129Z,20.94
2023-01-06T07:55:23.681Z,20.92
2023-01-06T07:56:22.045Z,20.92
2023-01-06T07:57:24.317Z,20.92
2023-01-06T07:58:21.177Z,20.91
2023-01-06T07:59:21.865Z,20.92
2023-01-06T08:00:22.036Z,20.92
2023-01-06T08:01:23.186Z,20.92
2023-01-06T08:02:21.124Z,20.95
2023-01-06T08:03:21.442Z,20.94
2023-01-06T08:04:41.969Z,20.97
2023-01-06T08:05:23.842Z,20.97
2023-01-06T08:06:20.979Z,20.95
2023-01-06T08:07:21.453Z,20.94
2023-01-06T08:08:21.839Z,20.95
2023-01-06T08:09:23.997Z,20.95
2023-01-06T08:10:21.909Z,20.95
2023-01-06T08:11:21.011Z,20.94
2023-01-06T08:12:21.827Z,20.95
2023-01-06T08:13:22.400Z,20.95
2023-01-06T08:14:20.828Z,20.98
2023-01-06T08:15:21.320Z,20.98
2023-01-06T08:16:21.789Z,20.94
2023-01-06T08:17:21.056Z,20.97
2023-01-06T08:18:20.783Z,20.95
2023-01-06T08:19:21.283Z,20.95
2023-01-06T08:20:21.689Z,20.97
2023-01-06T08:21:41.989Z,20.97
2023-01-06T08:22:21.476Z,20.97
2023-01-06T08:23:20.965Z,20.98
2023-01-06T08:24:21.472Z,20.97
2023-01-06T08:25:22.002Z,20.98
2023-01-06T08:26:20.689Z,20.97
2023-01-06T08:27:23.680Z,21.01
2023-01-06T08:28:20.711Z,20.99
2023-01-06T08:29:20.923Z,20.98
2023-01-06T08:30:21.622Z,20.98
2023-01-06T08:31:22.188Z,21.01
2023-01-06T08:32:21.552Z,21.03
2023-01-06T08:33:20.953Z,20.98
2023-01-06T08:34:20.934Z,20.99
2023-01-06T08:35:20.754Z,21.03
2023-01-06T08:36:20.572Z,20.98
2023-01-06T08:37:21.312Z,20.99
2023-01-06T08:38:20.518Z,21.01
2023-01-06T08:39:23.346Z,21.01
2023-01-06T08:40:20.502Z,21.04
2023-01-06T08:41:20.667Z,21.01
2023-01-06T08:42:22.445Z,21.01
2023-01-06T08:43:20.928Z,21.01
2023-01-06T08:44:20.524Z,21.03
2023-01-06T08:45:22.771Z,21.03
2023-01-06T08:46:20.453Z,21.04
2023-01-06T08:47:21.582Z,21.03
2023-01-06T08:48:20.436Z,21.03
2023-01-06T08:49:20.778Z,21.04
2023-01-06T08:50:21.288Z,21.01
2023-01-06T08:51:22.075Z,21.04
2023-01-06T08:52:21.315Z,21.03
2023-01-06T08:53:20.483Z,21.04
2023-01-06T08:54:20.288Z,21.04
2023-01-06T08:55:21.514Z,21.06
2023-01-06T08:56:22.162Z,21.04
2023-01-06T08:57:23.584Z,21.06
2023-01-06T08:58:21.240Z,21.04
2023-01-06T08:59:20.482Z,21.04
2023-01-06T09:00:20.248Z,21.04
2023-01-06T09:01:22.403Z,21.04
2023-01-06T09:02:21.265Z,21.06
2023-01-06T09:03:22.446Z,21.07
2023-01-06T09:04:21.625Z,21.06
2023-01-06T09:05:22.132Z,21.06
2023-01-06T09:06:20.135Z,21.09
2023-01-06T09:07:20.482Z,21.07
2023-01-06T09:08:21.066Z,21.06
2023-01-06T09:09:22.363Z,21.07
2023-01-06T09:10:20.083Z,21.09
2023-01-06T09:11:20.501Z,21.09
2023-01-06T09:12:21.022Z,21.07
2023-01-06T09:13:20.548Z,21.10
2023-01-06T09:14:20.041Z,21.06
2023-01-06T09:15:20.404Z,21.07
2023-01-06T09:16:20.077Z,21.12
2023-01-06T09:17:21.191Z,21.10
2023-01-06T09:18:20.928Z,21.10
2023-01-06T09:19:20.269Z,21.10
2023-01-06T09:20:19.964Z,21.10
2023-01-06T09:21:20.201Z,21.09
2023-01-06T09:22:20.000Z,21.09
2023-01-06T09:23:21.386Z,21.09
2023-01-06T09:24:20.002Z,21.10
2023-01-06T09:25:20.865Z,21.13
2023-01-06T09:26:20.806Z,21.10
2023-01-06T09:27:21.622Z,21.09
2023-01-06T09:28:21.019Z,21.12
2023-01-06T09:29:20.122Z,21.12
2023-01-06T09:30:20.747Z,21.12
2023-01-06T09:31:21.193Z,21.12
2023-01-06T09:32:19.818Z,21.10
2023-01-06T09:33:21.157Z,21.10
2023-01-06T09:34:19.764Z,21.13
2023-01-06T09:35:20.142Z,21.13
2023-01-06T09:36:19.747Z,21.13
2023-01-06T09:37:20.083Z,21.13
2023-01-06T09:38:20.635Z,21.12
2023-01-06T09:39:22.474Z,21.12
2023-01-06T09:40:19.647Z,21.14
2023-01-06T09:41:20.657Z,21.13
2023-01-06T09:42:19.645Z,21.12
2023-01-06T09:43:20.776Z,21.16
2023-01-06T09:44:19.609Z,21.16
2023-01-06T09:45:21.225Z,21.14
2023-01-06T09:46:20.422Z,21.16
2023-01-06T09:47:21.050Z,21.14
2023-01-06T09:48:19.650Z,21.14
2023-01-06T09:49:20.161Z,21.14
2023-01-06T09:50:21.085Z,21.14
2023-01-06T09:51:20.070Z,21.17
2023-01-06T09:52:20.042Z,21.13
2023-01-06T09:53:20.865Z,21.16
2023-01-06T09:54:19.464Z,21.14
2023-01-06T09:55:20.254Z,21.16
2023-01-06T09:56:19.481Z,21.16
2023-01-06T09:57:20.633Z,21.21
2023-01-06T09:58:19.414Z,21.16
2023-01-06T09:59:19.718Z,21.19
2023-01-06T10:00:20.342Z,21.19
2023-01-06T10:01:20.946Z,21.19
2023-01-06T10:02:19.432Z,21.17
2023-01-06T10:03:19.731Z,21.17
2023-01-06T10:04:19.496Z,21.19
2023-01-06T10:05:22.225Z,21.17
2023-01-06T10:06:19.327Z,21.19
2023-01-06T10:07:20.318Z,21.19
2023-01-06T10:08:20.280Z,21.22
2023-01-06T10:09:19.585Z,21.21
2023-01-06T10:10:21.305Z,21.21
2023-01-06T10:11:19.584Z,21.19
2023-01-06T10:12:20.151Z,21.22
2023-01-06T10:13:21.540Z,21.19
2023-01-06T10:14:20.139Z,21.21
2023-01-06T10:15:19.811Z,21.22
2023-01-06T10:16:21.077Z,21.19
2023-01-06T10:17:21.380Z,21.21
2023-01-06T10:18:20.093Z,21.19
2023-01-06T10:19:19.493Z,21.19
2023-01-06T10:20:19.123Z,21.19
2023-01-06T10:21:20.588Z,21.24
2023-01-06T10:22:20.220Z,21.21
2023-01-06T10:23:19.770Z,21.19
2023-01-06T10:24:19.054Z,21.21
2023-01-06T10:25:19.770Z,21.21
2023-01-06T10:26:19.962Z,21.22
2023-01-06T10:27:21.353Z,21.24
2023-01-06T10:28:18.994Z,21.22
2023-01-06T10:29:20.034Z,21.21
2023-01-06T10:30:19.051Z,21.21
2023-01-06T10:31:22.274Z,21.21
2023-01-06T10:32:18.973Z,21.25
2023-01-06T10:33:20.994Z,21.22
2023-01-06T10:34:18.934Z,21.22
2023-01-06T10:35:19.208Z,21.22
2023-01-06T10:36:18.965Z,21.24
2023-01-06T10:37:19.975Z,21.22
2023-01-06T10:38:18.888Z,21.21
2023-01-06T10:39:20.103Z,21.21
2023-01-06T10:40:18.859Z,21.22
2023-01-06T10:41:19.325Z,21.24
2023-01-06T10:42:18.812Z,21.22
2023-01-06T10:43:20.333Z,21.21
2023-01-06T10:44:18.795Z,21.24
2023-01-06T10:45:22.995Z,21.24
2023-01-06T10:46:19.949Z,21.24
2023-01-06T10:47:20.048Z,21.22
2023-01-06T10:48:18.768Z,21.21
2023-01-06T10:49:19.236Z,21.22
2023-01-06T10:50:18.740Z,21.21
2023-01-06T10:51:19.705Z,21.22
2023-01-06T10:52:18.755Z,21.22
2023-01-06T10:53:19.505Z,21.22
2023-01-06T10:54:18.676Z,21.25
2023-01-06T10:55:19.185Z,21.21
2023-01-06T10:56:19.366Z,21.24
2023-01-06T10:57:19.141Z,21.24
2023-01-06T10:58:18.693Z,21.22
2023-01-06T10:59:20.122Z,21.24
2023-01-06T11:00:19.545Z,21.24
2023-01-06T11:01:21.442Z,21.24
2023-01-06T11:02:19.560Z,21.21
2023-01-06T11:03:33.007Z,21.22
2023-01-06T11:04:20.479Z,21.22
2023-01-06T11:05:19.494Z,21.22
2023-01-06T11:06:18.495Z,21.22
2023-01-06T11:07:19.101Z,21.25
2023-01-06T11:08:18.475Z,21.22
2023-01-06T11:09:20.151Z,21.22
2023-01-06T11:10:18.401Z,21.25
2023-01-06T11:11:34.452Z,21.24
2023-01-06T11:12:20.503Z,21.24
2023-01-06T11:13:19.101Z,21.24
2023-01-06T11:14:18.380Z,21.24
2023-01-06T11:15:25.458Z,21.24
2023-01-06T11:16:18.420Z,21.25
2023-01-06T11:17:19.794Z,21.25
2023-01-06T11:18:18.739Z,21.22
2023-01-06T11:19:18.648Z,21.22
2023-01-06T11:20:19.055Z,21.24
2023-01-06T11:21:19.464Z,21.24
2023-01-06T11:22:19.383Z,21.25
2023-01-06T11:23:18.863Z,21.24
2023-01-06T11:24:18.462Z,21.25
2023-01-06T11:25:20.240Z,21.25
2023-01-06T11:26:19.176Z,21.24
2023-01-06T11:27:30.960Z,21.27
2023-01-06T11:28:18.243Z,21.24
2023-01-06T11:29:19.437Z,21.24
2023-01-06T11:30:18.248Z,21.25
2023-01-06T11:31:20.110Z,21.28
2023-01-06T11:32:18.108Z,21.25
2023-01-06T11:33:19.673Z,21.25
2023-01-06T11:34:18.079Z,21.27
2023-01-06T11:35:40.084Z,21.24
2023-01-06T11:36:18.444Z,21.25
2023-01-06T11:37:20.092Z,21.21
2023-01-06T11:38:18.477Z,21.25
2023-01-06T11:39:24.851Z,21.27
2023-01-06T11:40:18.150Z,21.27
2023-01-06T11:41:25.459Z,21.25
2023-01-06T11:42:18.996Z,21.25
2023-01-06T11:43:20.050Z,21.27
2023-01-06T11:44:18.832Z,21.27
2023-01-06T11:45:22.230Z,21.25
2023-01-06T11:46:18.074Z,21.24
2023-01-06T11:47:19.214Z,21.27
2023-01-06T11:48:17.915Z,21.25
2023-01-06T11:49:19.787Z,21.25
2023-01-06T11:50:17.935Z,21.28
2023-01-06T11:51:18.547Z,21.27
2023-01-06T11:52:17.895Z,21.28
2023-01-06T11:53:18.753Z,21.28
2023-01-06T11:54:17.921Z,21.29
2023-01-06T11:55:18.621Z,21.25
2023-01-06T11:56:17.905Z,21.25
2023-01-06T11:57:19.447Z,21.28
2023-01-06T11:58:17.843Z,21.25
2023-01-06T11:59:18.083Z,21.28
2023-01-06T12:00:17.766Z,21.27
2023-01-06T12:01:20.806Z,21.28
2023-01-06T12:02:17.804Z,21.27
2023-01-06T12:03:24.061Z,21.28
2023-01-06T12:04:17.727Z,21.28
2023-01-06T12:05:21.980Z,21.28
2023-01-06T12:06:17.794Z,21.29
2023-01-06T12:07:19.082Z,21.29
2023-01-06T12:08:17.635Z,21.28
2023-01-06T12:09:18.967Z,21.28
2023-01-06T12:10:17.685Z,21.31
2023-01-06T12:11:19.307Z,21.29
2023-01-06T12:12:17.594Z,21.28
2023-01-06T12:13:18.679Z,21.29
2023-01-06T12:14:28.073Z,21.31
2023-01-06T12:15:19.510Z,21.28
2023-01-06T12:16:17.903Z,21.28
2023-01-06T12:17:20.008Z,21.29
2023-01-06T12:18:17.547Z,21.29
2023-01-06T12:19:20.945Z,21.29
2023-01-06T12:20:18.236Z,21.31
2023-01-06T12:21:19.476Z,21.29
2023-01-06T12:22:17.461Z,21.31
2023-01-06T12:23:19.873Z,21.31
2023-01-06T12:24:17.509Z,21.29
2023-01-06T12:25:18.616Z,21.31
2023-01-06T12:26:17.396Z,21.32
2023-01-06T12:27:20.012Z,21.31
2023-01-06T12:28:18.129Z,21.32
2023-01-06T12:29:25.222Z,21.32
2023-01-06T12:30:17.350Z,21.31
2023-01-06T12:31:20.637Z,21.32
2023-01-06T12:32:17.379Z,21.31
2023-01-06T12:33:30.204Z,21.34
2023-01-06T12:34:17.303Z,21.31
2023-01-06T12:35:19.706Z,21.32
2023-01-06T12:36:17.336Z,21.32
2023-01-06T12:37:18.477Z,21.34
2023-01-06T12:38:17.284Z,21.32
2023-01-06T12:39:20.346Z,21.32
2023-01-06T12:40:17.354Z,21.34
2023-01-06T12:41:18.762Z,21.34
2023-01-06T12:42:17.241Z,21.31
2023-01-06T12:43:18.396Z,21.34
2023-01-06T12:44:17.165Z,21.32
2023-01-06T12:45:19.046Z,21.31
2023-01-06T12:46:17.289Z,21.34
2023-01-06T12:47:18.576Z,21.32
2023-01-06T12:48:17.122Z,21.34
2023-01-06T12:49:19.410Z,21.34
2023-01-06T12:50:17.063Z,21.35
2023-01-06T12:51:27.005Z,21.32
2023-01-06T12:52:17.051Z,21.34